createdAt,value
2022-12-27T00:00:02.522Z,8.20
2022-12-27T00:02:04.700Z,8.24
2022-12-27T00:04:06.572Z,8.18
2022-12-27T00:06:28.502Z,8.01
2022-12-27T00:08:30.590Z,7.84
2022-12-27T00:10:32.671Z,7.83
2022-12-27T00:12:41.412Z,8.16
2022-12-27T00:14:43.611Z,8.18
2022-12-27T00:16:45.421Z,8.09
2022-12-27T00:18:47.963Z,8.21
2022-12-27T00:20:50.083Z,8.14
2022-12-27T00:22:52.126Z,8.07
2022-12-27T00:24:53.819Z,8.27
2022-12-27T00:26:55.767Z,8.19
2022-12-27T00:28:58.070Z,8.10
2022-12-27T00:31:00.984Z,7.93
2022-12-27T00:33:03.026Z,8.08
2022-12-27T00:35:05.673Z,8.07
2022-12-27T00:37:07.415Z,8.16
2022-12-27T00:39:10.871Z,7.99
2022-12-27T00:41:13.578Z,8.15
2022-12-27T00:43:15.271Z,8.16
2022-12-27T00:45:17.193Z,8.23
2022-12-27T00:47:19.123Z,8.04
2022-12-27T00:49:20.857Z,8.16
2022-12-27T00:51:24.585Z,7.89
2022-12-27T00:53:26.694Z,8.11
2022-12-27T00:55:28.778Z,8.00
2022-12-27T00:57:30.495Z,8.13
2022-12-27T00:59:32.413Z,8.10
2022-12-27T01:01:36.673Z,8.19
2022-12-27T01:03:38.842Z,8.01
2022-12-27T01:05:40.694Z,7.97
2022-12-27T01:07:42.431Z,7.98
2022-12-27T01:09:44.173Z,8.03
2022-12-27T01:11:45.917Z,8.18
2022-12-27T01:13:48.071Z,8.12
2022-12-27T01:15:49.923Z,8.13
2022-12-27T01:17:51.807Z,7.87
2022-12-27T01:19:53.528Z,8.23
2022-12-27T01:21:55.243Z,8.20
2022-12-27T01:23:57.290Z,8.25
2022-12-27T01:26:04.427Z,7.97
2022-12-27T01:28:06.505Z,7.87
2022-12-27T01:30:09.138Z,7.62
2022-12-27T01:32:10.922Z,7.44
2022-12-27T01:34:12.739Z,7.18
2022-12-27T01:36:21.476Z,7.07
2022-12-27T01:38:23.249Z,6.84
2022-12-27T01:40:25.967Z,6.84
2022-12-27T01:42:28.106Z,6.78
2022-12-27T01:44:38.831Z,6.82
2022-12-27T01:46:40.572Z,6.72
2022-12-27T01:48:42.468Z,6.31
2022-12-27T01:50:49.251Z,6.24
2022-12-27T01:52:54.079Z,6.45
2022-12-27T01:55:03.378Z,6.45
2022-12-27T01:57:05.907Z,6.24
2022-12-27T01:59:10.359Z,6.42
2022-12-27T02:01:21.858Z,6.36
2022-12-27T02:03:34.623Z,6.15
2022-12-27T02:05:36.836Z,6.03
2022-12-27T02:07:50.344Z,5.83
2022-12-27T02:09:58.157Z,5.80
2022-12-27T02:12:00.859Z,5.35
2022-12-27T02:14:03.036Z,5.03
2022-12-27T02:16:18.620Z,4.95
2022-12-27T02:18:21.038Z,4.93
2022-12-27T02:20:25.075Z,5.07
2022-12-27T02:22:32.984Z,5.09
2022-12-27T02:24:50.044Z,4.94
2022-12-27T02:27:22.183Z,4.89
2022-12-27T02:29:32.998Z,4.86
2022-12-27T02:31:43.828Z,4.82
2022-12-27T02:33:49.035Z,4.77
2022-12-27T02:36:04.957Z,4.81
2022-12-27T02:38:12.600Z,4.65
2022-12-27T02:40:16.651Z,4.71
2022-12-27T02:42:20.693Z,4.41
2022-12-27T02:44:23.186Z,4.66
2022-12-27T02:46:27.719Z,4.68
2022-12-27T02:48:29.446Z,4.39
2022-12-27T02:50:58.681Z,4.63
2022-12-27T02:53:12.626Z,4.72
2022-12-27T02:55:23.121Z,4.73
2022-12-27T02:57:33.893Z,4.68
2022-12-27T02:59:45.013Z,4.57
2022-12-27T03:02:00.919Z,4.71
2022-12-27T03:04:32.100Z,4.52
2022-12-27T03:06:54.254Z,4.75
2022-12-27T03:09:37.747Z,4.64
2022-12-27T03:11:51.673Z,4.49
2022-12-27T03:14:06.574Z,4.24
2022-12-27T03:16:23.395Z,4.55
2022-12-27T03:18:28.240Z,4.63
2022-12-27T03:20:32.007Z,4.43
2022-12-27T03:22:36.755Z,4.51
2022-12-27T03:24:40.399Z,4.57
2022-12-27T03:26:49.501Z,4.32
2022-12-27T03:28:52.623Z,4.43
2022-12-27T03:31:00.640Z,4.47
2022-12-27T03:33:06.202Z,4.20
2022-12-27T03:35:20.269Z,4.17
2022-12-27T03:37:25.837Z,4.37
2022-12-27T03:39:36.611Z,4.21
2022-12-27T03:41:42.632Z,4.14
2022-12-27T03:43:44.439Z,4.03
2022-12-27T03:45:56.659Z,4.12
2022-12-27T03:48:06.691Z,3.93
2022-12-27T03:50:19.493Z,3.96
2022-12-27T03:52:33.202Z,3.59
2022-12-27T03:54:43.674Z,3.87
2022-12-27T03:56:45.367Z,3.69
2022-12-27T03:58:47.188Z,3.77
2022-12-27T04:00:49.197Z,3.81
2022-12-27T04:02:51.090Z,3.71
2022-12-27T04:04:53.056Z,3.74
2022-12-27T04:06:55.274Z,3.68
2022-12-27T04:08:57.014Z,3.69
2022-12-27T04:10:58.976Z,3.56
2022-12-27T04:13:01.319Z,3.48
2022-12-27T04:15:03.312Z,3.78
2022-12-27T04:17:05.127Z,3.75
2022-12-27T04:19:07.281Z,3.57
2022-12-27T04:21:09.459Z,3.67
2022-12-27T04:23:11.253Z,3.81
2022-12-27T04:25:13.112Z,3.75
2022-12-27T04:27:14.809Z,3.86
2022-12-27T04:29:16.535Z,3.91
2022-12-27T04:31:18.956Z,3.82
2022-12-27T04:33:20.698Z,3.94
2022-12-27T04:35:22.415Z,3.86
2022-12-27T04:37:24.451Z,3.70
2022-12-27T04:39:26.243Z,3.76
2022-12-27T04:41:27.941Z,3.69
2022-12-27T04:43:29.762Z,3.66
2022-12-27T04:45:31.558Z,3.58
2022-12-27T04:47:33.264Z,3.57
2022-12-27T04:49:35.472Z,3.50
2022-12-27T04:51:37.423Z,3.64
2022-12-27T04:53:39.114Z,3.64
2022-12-27T04:55:40.971Z,3.61
2022-12-27T04:57:42.877Z,3.61
2022-12-27T04:59:44.561Z,3.40
2022-12-27T05:01:46.538Z,3.56
2022-12-27T05:03:50.890Z,3.53
2022-12-27T05:05:53.381Z,3.21
2022-12-27T05:07:57.454Z,3.29
2022-12-27T05:10:02.351Z,3.53
2022-12-27T05:12:04.112Z,3.44
2022-12-27T05:14:11.669Z,3.44
2022-12-27T05:16:14.779Z,3.18
2022-12-27T05:18:16.510Z,3.35
2022-12-27T05:20:18.284Z,3.24
2022-12-27T05:22:19.988Z,3.25
2022-12-27T05:24:21.659Z,3.13
2022-12-27T05:26:26.100Z,3.19
2022-12-27T05:28:27.811Z,2.89
2022-12-27T05:30:29.562Z,2.96
2022-12-27T05:32:31.473Z,3.10
2022-12-27T05:34:33.167Z,2.85
2022-12-27T05:36:34.905Z,2.83
2022-12-27T05:38:36.918Z,3.01
2022-12-27T05:40:38.657Z,3.10
2022-12-27T05:42:40.380Z,2.97
2022-12-27T05:44:42.476Z,2.94
2022-12-27T05:46:44.251Z,3.16
2022-12-27T05:48:46.151Z,3.00
2022-12-27T05:50:48.408Z,2.94
2022-12-27T05:52:50.412Z,3.11
2022-12-27T05:54:52.085Z,3.06
2022-12-27T05:56:54.723Z,3.08
2022-12-27T05:58:56.429Z,2.97
2022-12-27T06:00:58.756Z,2.68
2022-12-27T06:03:02.926Z,2.76
2022-12-27T06:05:05.546Z,2.87
2022-12-27T06:07:07.290Z,2.91
2022-12-27T06:09:09.257Z,2.85
2022-12-27T06:11:13.786Z,2.94
2022-12-27T06:13:15.498Z,2.93
2022-12-27T06:15:21.020Z,2.93
2022-12-27T06:17:22.792Z,2.99
2022-12-27T06:19:24.502Z,2.99
2022-12-27T06:21:26.557Z,2.97
2022-12-27T06:23:28.467Z,3.12
2022-12-27T06:25:30.174Z,2.97
2022-12-27T06:27:31.912Z,3.11
2022-12-27T06:29:33.711Z,3.16
2022-12-27T06:31:35.522Z,3.09
2022-12-27T06:33:37.502Z,3.24
2022-12-27T06:35:39.459Z,3.12
2022-12-27T06:37:41.437Z,3.30
2022-12-27T06:39:43.174Z,3.12
2022-12-27T06:41:45.108Z,3.24
2022-12-27T06:43:47.761Z,3.35
2022-12-27T06:45:59.467Z,3.27
2022-12-27T06:48:01.413Z,3.14
2022-12-27T06:50:04.535Z,3.28
2022-12-27T06:52:06.499Z,3.27
2022-12-27T06:54:08.313Z,3.18
2022-12-27T06:56:12.976Z,3.18
2022-12-27T06:58:20.963Z,3.35
2022-12-27T07:00:22.971Z,3.44
2022-12-27T07:02:24.822Z,3.39
2022-12-27T07:04:26.981Z,3.34
2022-12-27T07:06:31.045Z,3.39
2022-12-27T07:08:32.894Z,3.39
2022-12-27T07:10:36.940Z,3.40
2022-12-27T07:12:38.824Z,3.34
2022-12-27T07:14:40.584Z,3.59
2022-12-27T07:16:42.482Z,3.63
2022-12-27T07:18:45.157Z,3.69
2022-12-27T07:20:46.837Z,3.80
2022-12-27T07:22:48.671Z,3.66
2022-12-27T07:24:50.648Z,3.80
2022-12-27T07:26:52.360Z,3.87
2022-12-27T07:28:55.639Z,3.95
2022-12-27T07:30:57.619Z,3.69
2022-12-27T07:32:59.296Z,3.82
2022-12-27T07:35:00.976Z,3.70
2022-12-27T07:37:02.918Z,3.74
2022-12-27T07:39:05.997Z,4.04
2022-12-27T07:41:08.698Z,3.81
2022-12-27T07:43:10.593Z,3.75
2022-12-27T07:45:12.276Z,3.84
2022-12-27T07:47:14.239Z,3.78
2022-12-27T07:49:18.025Z,3.95
2022-12-27T07:51:20.032Z,3.74
2022-12-27T07:53:22.049Z,4.00
2022-12-27T07:55:24.000Z,3.84
2022-12-27T07:57:25.700Z,3.95
2022-12-27T07:59:27.680Z,3.94
2022-12-27T08:01:34.688Z,3.96
2022-12-27T08:03:37.098Z,4.03
2022-12-27T08:05:38.985Z,3.94
2022-12-27T08:07:41.264Z,3.87
2022-12-27T08:09:45.082Z,4.06
2022-12-27T08:11:46.776Z,4.07
2022-12-27T08:13:49.145Z,4.09
2022-12-27T08:15:52.930Z,4.17
2022-12-27T08:17:54.650Z,4.11
2022-12-27T08:19:56.505Z,4.08
2022-12-27T08:21:58.269Z,4.09
2022-12-27T08:24:00.011Z,4.20
2022-12-27T08:26:01.900Z,4.09
2022-12-27T08:28:10.381Z,4.25
2022-12-27T08:30:12.546Z,4.11
2022-12-27T08:32:14.512Z,4.21
2022-12-27T08:34:16.233Z,4.18
2022-12-27T08:38:39.877Z,4.22
2022-12-27T08:40:43.608Z,4.24
2022-12-27T08:42:45.282Z,4.39
2022-12-27T08:44:47.239Z,4.31
2022-12-27T08:46:48.997Z,4.49
2022-12-27T08:48:51.267Z,4.63
2022-12-27T08:50:53.105Z,4.68
2022-12-27T08:53:02.051Z,4.53
2022-12-27T08:55:04.562Z,4.59
2022-12-27T08:57:06.316Z,4.66
2022-12-27T08:59:08.023Z,4.62
2022-12-27T09:01:10.325Z,4.52
2022-12-27T09:03:12.314Z,4.58
2022-12-27T09:05:14.075Z,4.72
2022-12-27T09:07:16.110Z,4.63
2022-12-27T09:09:17.947Z,4.51
2022-12-27T09:11:22.381Z,4.52
2022-12-27T09:13:24.089Z,4.60
2022-12-27T09:15:26.100Z,4.56
2022-12-27T09:17:27.797Z,4.69
2022-12-27T09:19:29.533Z,4.63
2022-12-27T09:21:33.305Z,4.57
2022-12-27T09:23:35.597Z,4.64
2022-12-27T09:25:37.320Z,4.61
2022-12-27T09:27:39.416Z,4.57
2022-12-27T09:29:50.044Z,4.73
2022-12-27T09:31:51.724Z,4.66
2022-12-27T09:34:02.794Z,4.73
2022-12-27T09:36:07.592Z,4.53
2022-12-27T09:38:09.259Z,4.72
2022-12-27T09:40:16.460Z,4.47
2022-12-27T09:42:52.124Z,4.58
2022-12-27T09:45:06.210Z,4.49
2022-12-27T09:47:16.203Z,4.51
2022-12-27T09:49:30.130Z,4.38
2022-12-27T09:51:43.339Z,4.34
2022-12-27T09:53:57.172Z,4.37
2022-12-27T09:55:59.553Z,4.56
2022-12-27T09:58:30.500Z,4.78
2022-12-27T10:00:35.380Z,4.36
2022-12-27T10:02:38.529Z,4.57
2022-12-27T10:05:17.887Z,4.64
2022-12-27T10:07:16.049Z,4.90
2022-12-27T10:10:00.869Z,4.86
2022-12-27T10:12:40.677Z,4.91
2022-12-27T10:14:47.980Z,4.91
2022-12-27T10:17:07.642Z,4.86
2022-12-27T10:19:29.448Z,4.87
2022-12-27T10:21:37.649Z,4.62
2022-12-27T10:23:43.714Z,4.87
2022-12-27T10:25:46.830Z,4.87
2022-12-27T10:27:55.083Z,4.95
2022-12-27T10:29:59.067Z,4.81
2022-12-27T10:32:00.804Z,4.82
2022-12-27T10:34:06.257Z,5.12
2022-12-27T10:36:17.228Z,5.18
2022-12-27T10:38:19.875Z,5.49
2022-12-27T10:40:31.065Z,5.46
2022-12-27T10:42:39.174Z,5.27
2022-12-27T10:44:41.085Z,5.22
2022-12-27T10:46:49.806Z,5.17
2022-12-27T10:49:21.052Z,5.12
2022-12-27T10:51:25.640Z,5.08
2022-12-27T10:53:41.132Z,5.13
2022-12-27T10:55:42.816Z,4.91
2022-12-27T10:57:44.689Z,4.90
2022-12-27T10:59:46.443Z,5.01
2022-12-27T11:02:07.022Z,4.74
2022-12-27T11:04:24.477Z,4.83
2022-12-27T11:06:27.528Z,4.67
2022-12-27T11:08:30.192Z,4.51
2022-12-27T11:10:33.390Z,4.74
2022-12-27T11:12:35.091Z,4.79
2022-12-27T11:14:36.776Z,4.55
2022-12-27T11:16:41.198Z,4.62
2022-12-27T11:18:54.090Z,4.76
2022-12-27T11:20:58.922Z,4.64
2022-12-27T11:23:11.485Z,4.51
2022-12-27T11:25:14.881Z,4.47
2022-12-27T11:27:26.731Z,4.45
2022-12-27T11:29:32.457Z,4.31
2022-12-27T11:31:40.430Z,4.41
2022-12-27T11:33:47.989Z,3.83
2022-12-27T11:35:52.935Z,4.11
2022-12-27T11:37:54.860Z,4.11
2022-12-27T11:40:22.696Z,4.26
2022-12-27T11:42:28.291Z,4.20
2022-12-27T11:44:37.423Z,4.22
2022-12-27T11:47:03.959Z,4.05
2022-12-27T11:49:09.535Z,4.11
2022-12-27T11:51:43.946Z,4.12
2022-12-27T11:54:36.164Z,4.09
2022-12-27T11:57:09.634Z,4.07
2022-12-27T11:59:17.449Z,4.00
2022-12-27T12:01:53.444Z,3.95
2022-12-27T12:04:32.921Z,3.98
2022-12-27T12:07:09.366Z,3.90
2022-12-27T12:09:30.274Z,4.01
2022-12-27T12:11:35.061Z,3.89
2022-12-27T12:13:55.660Z,3.91
2022-12-27T12:16:21.796Z,3.93
2022-12-27T12:19:03.576Z,3.98
2022-12-27T12:21:27.585Z,4.06
2022-12-27T12:24:13.597Z,3.97
2022-12-27T12:26:21.767Z,4.15
2022-12-27T12:31:24.895Z,3.96
2022-12-27T12:34:03.915Z,4.07
2022-12-27T12:36:22.962Z,4.21
2022-12-27T12:38:42.155Z,4.08
2022-12-27T12:40:43.835Z,4.10
2022-12-27T12:43:01.479Z,4.11
2022-12-27T12:45:15.881Z,3.83
2022-12-27T12:47:38.601Z,4.17
2022-12-27T12:50:14.782Z,4.03
2022-12-27T12:52:35.379Z,4.12
2022-12-27T12:54:50.226Z,4.10
2022-12-27T12:57:32.600Z,4.01
2022-12-27T13:00:05.550Z,4.13
2022-12-27T13:02:25.596Z,4.09
2022-12-27T13:04:42.129Z,4.19
2022-12-27T13:07:25.255Z,4.20
2022-12-27T13:10:01.091Z,4.12
2022-12-27T13:12:13.649Z,3.90
2022-12-27T13:14:47.482Z,4.04
2022-12-27T13:17:18.496Z,3.83
2022-12-27T13:19:55.391Z,3.78
2022-12-27T13:22:25.832Z,3.58
2022-12-27T13:24:55.342Z,3.66
2022-12-27T13:27:10.575Z,3.59
2022-12-27T13:29:36.301Z,3.48
2022-12-27T13:31:46.934Z,3.34
2022-12-27T13:33:54.776Z,3.22
2022-12-27T13:36:20.844Z,3.20
2022-12-27T13:38:50.126Z,3.22
2022-12-27T13:41:11.828Z,3.06
2022-12-27T13:43:34.983Z,3.25
2022-12-27T13:45:42.291Z,3.19
2022-12-27T13:48:02.865Z,3.19
2022-12-27T13:50:27.346Z,3.21
2022-12-27T13:52:40.923Z,3.19
2022-12-27T13:55:12.041Z,3.00
2022-12-27T13:57:31.847Z,3.13
2022-12-27T13:59:39.500Z,3.14
2022-12-27T14:01:53.703Z,3.15
2022-12-27T14:04:32.737Z,3.18
2022-12-27T14:06:58.623Z,3.09
2022-12-27T14:09:27.980Z,3.15
2022-12-27T14:11:38.781Z,3.13
2022-12-27T14:13:43.641Z,3.03
2022-12-27T14:16:13.031Z,3.17
2022-12-27T14:18:41.862Z,3.20
2022-12-27T14:20:55.768Z,3.06
2022-12-27T14:23:16.047Z,3.12
2022-12-27T14:25:44.613Z,3.17
2022-12-27T14:28:27.734Z,3.25
2022-12-27T14:30:48.218Z,3.28
2022-12-27T14:32:55.751Z,3.29
2022-12-27T14:35:20.826Z,3.31
2022-12-27T14:37:53.525Z,3.33
2022-12-27T14:40:00.972Z,3.40
2022-12-27T14:42:23.855Z,3.43
2022-12-27T14:44:44.808Z,3.43
2022-12-27T14:47:23.044Z,3.52
2022-12-27T14:49:30.567Z,3.56
2022-12-27T14:52:03.627Z,3.61
2022-12-27T14:54:22.492Z,3.56
2022-12-27T14:56:45.796Z,3.56
2022-12-27T14:59:19.737Z,3.39
2022-12-27T15:01:30.225Z,3.62
2022-12-27T15:04:01.334Z,3.65
2022-12-27T15:06:22.798Z,3.67
2022-12-27T15:08:50.500Z,3.35
2022-12-27T15:11:05.275Z,3.67
2022-12-27T15:13:25.488Z,3.73
2022-12-27T15:16:00.218Z,3.75
2022-12-27T15:18:01.888Z,3.71
2022-12-27T15:20:06.593Z,3.77
2022-12-27T15:22:26.530Z,3.80
2022-12-27T15:24:58.915Z,3.85
2022-12-27T15:27:31.960Z,3.80
2022-12-27T15:29:36.245Z,3.81
2022-12-27T15:32:09.395Z,3.95
2022-12-27T15:34:29.113Z,3.88
2022-12-27T15:36:40.814Z,3.90
2022-12-27T15:38:54.921Z,3.83
2022-12-27T15:41:09.069Z,3.93
2022-12-27T15:43:20.125Z,4.02
2022-12-27T15:45:47.982Z,4.07
2022-12-27T15:47:49.664Z,3.95
2022-12-27T15:50:15.814Z,3.98
2022-12-27T15:52:32.498Z,3.93
2022-12-27T15:54:44.041Z,4.01
2022-12-27T15:56:50.173Z,3.96
2022-12-27T15:59:29.279Z,3.99
2022-12-27T16:01:33.697Z,3.70
2022-12-27T16:03:39.571Z,3.95
2022-12-27T16:05:47.855Z,3.90
2022-12-27T16:07:58.467Z,3.97
2022-12-27T16:10:02.939Z,4.02
2022-12-27T16:12:09.459Z,4.02
2022-12-27T16:14:41.190Z,3.95
2022-12-27T16:16:55.736Z,3.83
2022-12-27T16:19:06.470Z,4.02
2022-12-27T16:21:25.161Z,4.02
2022-12-27T16:23:39.848Z,3.80
2022-12-27T16:25:42.497Z,3.90
2022-12-27T16:27:45.149Z,3.86
2022-12-27T16:29:46.948Z,3.90
2022-12-27T16:31:51.136Z,3.81
2022-12-27T16:33:54.702Z,3.82
2022-12-27T16:36:11.756Z,3.99
2022-12-27T16:38:22.339Z,3.96
2022-12-27T16:40:26.971Z,3.98
2022-12-27T16:42:54.354Z,4.01
2022-12-27T16:45:23.493Z,3.95
2022-12-27T16:47:56.031Z,3.97
2022-12-27T16:50:26.987Z,3.93
2022-12-27T16:52:43.876Z,3.99
2022-12-27T16:55:02.541Z,3.98
2022-12-27T16:57:25.972Z,3.98
2022-12-27T16:59:59.015Z,4.00
2022-12-27T17:02:00.912Z,3.97
2022-12-27T17:04:03.123Z,3.98
2022-12-27T17:06:35.480Z,4.04
2022-12-27T17:08:37.309Z,3.76
2022-12-27T17:11:23.833Z,3.96
2022-12-27T17:13:34.644Z,4.00
2022-12-27T17:15:47.744Z,3.97
2022-12-27T17:17:55.401Z,3.98
2022-12-27T17:20:05.196Z,3.94
2022-12-27T17:22:13.144Z,4.01
2022-12-27T17:24:20.963Z,4.01
2022-12-27T17:26:57.982Z,4.00
2022-12-27T17:29:26.148Z,3.97
2022-12-27T17:31:44.631Z,4.04
2022-12-27T17:34:31.248Z,3.98
2022-12-27T17:36:48.097Z,3.93
2022-12-27T17:39:01.113Z,3.92
2022-12-27T17:41:34.317Z,4.02
2022-12-27T17:43:48.115Z,3.94
2022-12-27T17:46:04.963Z,3.97
2022-12-27T17:48:19.261Z,4.03
2022-12-27T17:50:24.036Z,4.03
2022-12-27T17:52:26.677Z,4.06
2022-12-27T17:54:29.445Z,3.96
2022-12-27T17:56:45.949Z,3.96
2022-12-27T17:58:47.691Z,3.79
2022-12-27T18:00:56.499Z,3.92
2022-12-27T18:03:02.936Z,3.66
2022-12-27T18:05:12.177Z,3.98
2022-12-27T18:07:15.460Z,3.89
2022-12-27T18:09:28.036Z,3.95
2022-12-27T18:11:32.652Z,3.97
2022-12-27T18:13:39.931Z,3.82
2022-12-27T18:15:45.019Z,3.95
2022-12-27T18:17:59.819Z,3.98
2022-12-27T18:20:30.840Z,3.83
2022-12-27T18:22:32.690Z,3.92
2022-12-27T18:24:34.432Z,4.00
2022-12-27T18:26:38.854Z,3.96
2022-12-27T18:28:41.327Z,4.01
2022-12-27T18:30:55.350Z,3.93
2022-12-27T18:32:57.338Z,3.99
2022-12-27T18:35:03.163Z,3.72
2022-12-27T18:37:11.029Z,3.85
2022-12-27T18:39:32.018Z,4.06
2022-12-27T18:41:43.390Z,4.03
2022-12-27T18:44:13.367Z,3.97
2022-12-27T18:46:26.749Z,4.04
2022-12-27T18:48:34.181Z,3.94
2022-12-27T18:50:35.962Z,3.96
2022-12-27T18:52:40.662Z,3.99
2022-12-27T18:54:42.521Z,3.88
2022-12-27T18:56:44.470Z,3.90
2022-12-27T18:59:20.865Z,4.00
2022-12-27T19:01:29.402Z,4.04
2022-12-27T19:03:36.548Z,3.81
2022-12-27T19:06:07.934Z,4.00
2022-12-27T19:08:17.417Z,3.79
2022-12-27T19:10:22.912Z,3.87
2022-12-27T19:12:39.188Z,3.75
2022-12-27T19:14:46.361Z,3.88
2022-12-27T19:16:52.867Z,3.89
2022-12-27T19:18:58.290Z,3.95
2022-12-27T19:21:02.832Z,3.92
2022-12-27T19:23:32.141Z,3.95
2022-12-27T19:25:36.100Z,3.81
2022-12-27T19:27:37.779Z,3.85
2022-12-27T19:29:49.191Z,3.77
2022-12-27T19:31:56.272Z,3.81
2022-12-27T19:34:06.746Z,3.75
2022-12-27T19:36:09.624Z,3.77
2022-12-27T19:38:19.185Z,3.69
2022-12-27T19:40:21.035Z,3.83
2022-12-27T19:42:29.629Z,3.83
2022-12-27T19:44:32.739Z,3.82
2022-12-27T19:46:34.940Z,3.91
2022-12-27T19:48:36.641Z,4.00
2022-12-27T19:50:46.620Z,3.93
2022-12-27T19:52:48.538Z,3.83
2022-12-27T19:54:52.568Z,3.91
2022-12-27T19:56:54.474Z,3.94
2022-12-27T19:58:56.400Z,3.91
2022-12-27T20:00:58.730Z,3.93
2022-12-27T20:03:00.700Z,3.90
2022-12-27T20:05:02.485Z,3.77
2022-12-27T20:07:04.463Z,3.83
2022-12-27T20:09:06.177Z,3.90
2022-12-27T20:11:14.261Z,3.86
2022-12-27T20:13:16.054Z,3.77
2022-12-27T20:15:19.114Z,3.85
2022-12-27T20:17:20.785Z,3.75
2022-12-27T20:19:22.675Z,3.87
2022-12-27T20:21:24.612Z,3.88
2022-12-27T20:23:26.302Z,3.87
2022-12-27T20:25:28.015Z,3.78
2022-12-27T20:27:29.917Z,3.91
2022-12-27T20:29:32.003Z,3.67
2022-12-27T20:31:35.660Z,3.90
2022-12-27T20:33:39.616Z,3.77
2022-12-27T20:35:41.363Z,3.97
2022-12-27T20:37:43.415Z,3.96
2022-12-27T20:39:45.133Z,3.86
2022-12-27T20:41:46.931Z,3.92
2022-12-27T20:43:54.236Z,3.92
2022-12-27T20:45:55.975Z,3.93
2022-12-27T20:47:57.677Z,3.91
2022-12-27T20:49:59.875Z,3.90
2022-12-27T20:52:01.666Z,3.96
2022-12-27T20:54:03.784Z,3.94
2022-12-27T20:56:06.844Z,3.96
2022-12-27T20:58:08.699Z,3.78
2022-12-27T21:00:16.447Z,3.82
2022-12-27T21:02:18.475Z,3.87
2022-12-27T21:04:20.436Z,3.97
2022-12-27T21:06:24.882Z,3.73
2022-12-27T21:08:26.553Z,3.75
2022-12-27T21:10:28.363Z,3.93
2022-12-27T21:12:30.095Z,3.95
2022-12-27T21:14:31.799Z,3.91
2022-12-27T21:16:35.235Z,3.94
2022-12-27T21:18:36.952Z,3.87
2022-12-27T21:20:38.970Z,3.93
2022-12-27T21:22:42.979Z,3.96
2022-12-27T21:24:44.931Z,3.81
2022-12-27T21:26:46.703Z,3.91
2022-12-27T21:28:48.568Z,3.78
2022-12-27T21:30:57.691Z,3.83
2022-12-27T21:32:59.405Z,3.90
2022-12-27T21:35:01.223Z,3.83
2022-12-27T21:37:02.928Z,3.98
2022-12-27T21:39:06.177Z,4.00
2022-12-27T21:41:19.964Z,3.87
2022-12-27T21:43:21.769Z,3.90
2022-12-27T21:45:23.547Z,3.88
2022-12-27T21:47:25.413Z,3.91
2022-12-27T21:49:27.155Z,4.02
2022-12-27T21:51:30.687Z,3.97
2022-12-27T21:53:33.958Z,3.96
2022-12-27T21:55:35.767Z,3.82
2022-12-27T21:57:37.466Z,3.89
2022-12-27T21:59:39.311Z,3.92
2022-12-27T22:01:51.723Z,3.87
2022-12-27T22:03:56.351Z,3.91
2022-12-27T22:05:58.197Z,3.81
2022-12-27T22:08:00.056Z,3.78
2022-12-27T22:10:03.148Z,3.88
2022-12-27T22:12:05.008Z,3.73
2022-12-27T22:14:06.739Z,3.88
2022-12-27T22:16:15.937Z,3.94
2022-12-27T22:18:17.845Z,3.92
2022-12-27T22:20:19.670Z,3.87
2022-12-27T22:22:21.554Z,3.65
2022-12-27T22:24:23.300Z,3.72
2022-12-27T22:26:30.332Z,3.82
2022-12-27T22:28:32.098Z,3.44
2022-12-27T22:30:37.560Z,3.58
2022-12-27T22:32:39.394Z,3.36
2022-12-27T22:34:41.889Z,3.56
2022-12-27T22:36:43.838Z,3.42
2022-12-27T22:38:49.501Z,3.37
2022-12-27T22:40:51.821Z,3.41
2022-12-27T22:42:56.003Z,3.35
2022-12-27T22:44:57.678Z,3.38
2022-12-27T22:49:21.586Z,3.04
2022-12-27T22:51:28.753Z,3.10
2022-12-27T22:53:30.518Z,3.12
2022-12-27T22:55:32.199Z,3.14
2022-12-27T22:57:34.154Z,3.03
2022-12-27T22:59:35.996Z,2.96
2022-12-27T23:01:37.862Z,2.85
2022-12-27T23:03:40.041Z,2.87
2022-12-27T23:05:41.733Z,2.92
2022-12-27T23:08:05.859Z,2.79
2022-12-27T23:10:05.632Z,2.76
2022-12-27T23:12:07.342Z,2.76
2022-12-27T23:14:12.560Z,2.56
2022-12-27T23:16:14.643Z,2.41
2022-12-27T23:18:16.412Z,2.70
2022-12-27T23:20:18.356Z,2.69
2022-12-27T23:22:20.599Z,2.72
2022-12-27T23:24:22.590Z,2.51
2022-12-27T23:26:24.671Z,2.44
2022-12-27T23:28:26.416Z,2.64
2022-12-27T23:30:28.177Z,2.44
2022-12-27T23:32:29.883Z,2.68
2022-12-27T23:34:31.608Z,2.69
2022-12-27T23:36:33.782Z,2.70
2022-12-27T23:38:35.563Z,2.68
2022-12-27T23:40:37.389Z,2.49
2022-12-27T23:42:39.161Z,2.29
2022-12-27T23:44:41.009Z,2.64
2022-12-27T23:46:42.885Z,2.52
2022-12-27T23:48:45.015Z,2.57
2022-12-27T23:50:48.382Z,2.53
2022-12-27T23:52:51.644Z,2.45
2022-12-27T23:54:53.386Z,2.19
2022-12-27T23:56:55.136Z,2.35
2022-12-27T23:58:58.632Z,2.16
